createdAt,value
2022-09-03T00:01:50.911Z,10.35
2022-09-03T00:04:44.214Z,5.07
2022-09-03T00:07:47.276Z,7.80
2022-09-03T00:10:48.020Z,6.45
2022-09-03T00:13:23.373Z,5.82
2022-09-03T00:15:53.438Z,6.22
2022-09-03T00:18:25.653Z,7.05
2022-09-03T00:20:59.493Z,8.30
2022-09-03T00:23:30.746Z,6.03
2022-09-03T00:26:10.242Z,7.40
2022-09-03T00:28:45.064Z,8.48
2022-09-03T00:31:28.175Z,7.47
2022-09-03T00:34:01.129Z,5.00
2022-09-03T00:36:42.386Z,10.32
2022-09-03T00:39:18.957Z,7.07
2022-09-03T00:42:13.251Z,10.70
2022-09-03T00:45:07.783Z,7.68
2022-09-03T00:47:44.869Z,6.03
2022-09-03T00:50:19.005Z,9.60
2022-09-03T00:53:05.187Z,10.45
2022-09-03T00:55:35.654Z,6.20
2022-09-03T00:58:18.364Z,12.30
2022-09-03T01:00:45.938Z,7.40
2022-09-03T01:03:53.344Z,4.90
2022-09-03T01:06:39.344Z,5.72
2022-09-03T01:09:35.174Z,5.82
2022-09-03T01:12:32.183Z,6.03
2022-09-03T01:15:17.209Z,12.90
2022-09-03T01:18:04.423Z,24.95
2022-09-03T01:20:55.485Z,12.65
2022-09-03T01:24:02.128Z,13.60
2022-09-03T01:26:52.669Z,12.43
2022-09-03T01:29:35.535Z,11.65
2022-09-03T01:32:34.605Z,7.00
2022-09-03T01:35:06.205Z,8.57
2022-09-03T01:38:12.361Z,12.65
2022-09-03T01:41:27.853Z,10.05
2022-09-03T01:44:06.647Z,10.82
2022-09-03T01:46:40.261Z,10.52
2022-09-03T01:49:31.151Z,7.93
2022-09-03T01:52:11.406Z,11.52
2022-09-03T01:55:00.202Z,6.20
2022-09-03T01:57:39.778Z,10.15
2022-09-03T02:00:13.646Z,10.82
2022-09-03T02:02:44.414Z,10.25
2022-09-03T02:05:14.920Z,11.63
2022-09-03T02:08:06.991Z,11.98
2022-09-03T02:10:48.241Z,12.68
2022-09-03T02:13:29.919Z,11.05
2022-09-03T02:16:01.480Z,14.40
2022-09-03T02:18:37.527Z,7.38
2022-09-03T02:21:05.728Z,9.80
2022-09-03T02:23:33.368Z,8.18
2022-09-03T02:26:03.355Z,6.95
2022-09-03T02:28:32.626Z,13.57
2022-09-03T02:31:00.198Z,12.13
2022-09-03T02:33:28.197Z,10.23
2022-09-03T02:35:55.889Z,14.48
2022-09-03T02:38:26.234Z,10.40
2022-09-03T02:40:54.426Z,13.90
2022-09-03T02:43:41.775Z,12.77
2022-09-03T02:46:15.448Z,17.33
2022-09-03T02:48:43.032Z,13.05
2022-09-03T02:51:14.373Z,14.02
2022-09-03T02:53:42.904Z,19.17
2022-09-03T02:56:10.597Z,15.73
2022-09-03T02:58:38.239Z,14.90
2022-09-03T03:01:06.133Z,11.32
2022-09-03T03:03:33.867Z,16.45
2022-09-03T03:06:05.654Z,12.45
2022-09-03T03:08:35.209Z,11.38
2022-09-03T03:11:02.848Z,11.52
2022-09-03T03:13:32.035Z,11.35
2022-09-03T03:16:06.299Z,10.48
2022-09-03T03:18:34.726Z,10.63
2022-09-03T03:21:15.095Z,12.98
2022-09-03T03:23:42.729Z,10.05
2022-09-03T03:26:13.247Z,11.25
2022-09-03T03:28:42.423Z,13.65
2022-09-03T03:31:12.037Z,10.70
2022-09-03T03:33:40.500Z,10.57
2022-09-03T03:36:14.330Z,12.02
2022-09-03T03:38:43.998Z,12.88
2022-09-03T03:41:24.163Z,9.40
2022-09-03T03:43:59.926Z,13.30
2022-09-03T03:46:36.513Z,11.07
2022-09-03T03:49:06.522Z,10.50
2022-09-03T03:51:35.463Z,12.57
2022-09-03T03:54:05.195Z,11.80
2022-09-03T03:56:34.631Z,10.98
2022-09-03T03:59:03.035Z,9.98
2022-09-03T04:01:30.973Z,14.70
2022-09-03T04:04:00.230Z,11.68
2022-09-03T04:06:28.829Z,17.02
2022-09-03T04:08:56.515Z,14.25
2022-09-03T04:11:24.665Z,16.85
2022-09-03T04:13:52.360Z,18.27
2022-09-03T04:16:25.292Z,22.25
2022-09-03T04:18:54.428Z,24.05
2022-09-03T04:21:29.347Z,18.75
2022-09-03T04:23:57.937Z,20.40
2022-09-03T04:26:33.126Z,21.95
2022-09-03T04:29:05.142Z,19.15
2022-09-03T04:31:33.767Z,17.90
2022-09-03T04:34:01.259Z,17.52
2022-09-03T04:36:31.049Z,15.20
2022-09-03T04:39:00.261Z,14.60
2022-09-03T04:41:29.595Z,15.65
2022-09-03T04:43:58.554Z,16.75
2022-09-03T04:46:33.631Z,15.73
2022-09-03T04:49:02.456Z,14.05
2022-09-03T04:51:30.387Z,13.25
2022-09-03T04:54:02.669Z,15.02
2022-09-03T04:56:32.186Z,18.08
2022-09-03T04:59:02.255Z,15.32
2022-09-03T05:01:31.859Z,18.27
2022-09-03T05:03:59.949Z,20.80
2022-09-03T05:06:28.902Z,15.43
2022-09-03T05:08:56.713Z,14.65
2022-09-03T05:11:25.050Z,13.82
2022-09-03T05:13:54.909Z,16.02
2022-09-03T05:16:24.015Z,12.80
2022-09-03T05:18:57.001Z,16.50
2022-09-03T05:21:24.691Z,12.25
2022-09-03T05:23:53.324Z,14.57
2022-09-03T05:26:29.000Z,12.02
2022-09-03T05:28:59.447Z,12.98
2022-09-03T05:31:30.160Z,15.30
2022-09-03T05:34:00.457Z,14.00
2022-09-03T05:36:30.316Z,16.40
2022-09-03T05:38:59.280Z,10.15
2022-09-03T05:41:28.181Z,17.05
2022-09-03T05:43:59.605Z,12.45
2022-09-03T05:46:32.622Z,17.33
2022-09-03T05:49:05.776Z,15.13
2022-09-03T05:51:34.499Z,13.90
2022-09-03T05:54:02.977Z,11.80
2022-09-03T05:56:31.743Z,12.13
2022-09-03T05:59:01.828Z,13.68
2022-09-03T06:01:35.214Z,15.48
2022-09-03T06:04:08.076Z,14.50
2022-09-03T06:06:39.016Z,9.98
2022-09-03T06:09:23.540Z,10.73
2022-09-03T06:11:52.613Z,7.95
2022-09-03T06:14:20.543Z,13.43
2022-09-03T06:16:50.158Z,11.80
2022-09-03T06:19:17.795Z,15.35
2022-09-03T06:21:46.963Z,6.72
2022-09-03T06:24:17.038Z,5.47
2022-09-03T06:26:45.088Z,7.35
2022-09-03T06:29:12.872Z,6.00
2022-09-03T06:31:40.629Z,5.55
2022-09-03T06:34:08.438Z,14.13
2022-09-03T06:36:36.106Z,8.00
2022-09-03T06:39:03.975Z,8.43
2022-09-03T06:41:35.243Z,6.70
2022-09-03T06:44:05.782Z,4.23
2022-09-03T06:46:39.009Z,9.68
2022-09-03T06:49:07.104Z,8.10
2022-09-03T06:51:36.038Z,5.55
2022-09-03T06:54:08.546Z,7.22
2022-09-03T06:56:40.220Z,5.05
2022-09-03T06:59:10.923Z,6.90
2022-09-03T07:01:43.574Z,5.00
2022-09-03T07:04:13.539Z,7.25
2022-09-03T07:06:42.640Z,13.73
2022-09-03T07:09:12.165Z,13.68
2022-09-03T07:11:47.181Z,7.43
2022-09-03T07:14:19.558Z,7.20
2022-09-03T07:16:48.552Z,8.48
2022-09-03T07:19:16.517Z,10.07
2022-09-03T07:21:49.698Z,7.10
2022-09-03T07:24:19.830Z,7.43
2022-09-03T07:26:48.809Z,14.65
2022-09-03T07:29:20.106Z,5.75
2022-09-03T07:31:51.731Z,7.13
2022-09-03T07:34:20.439Z,7.38
2022-09-03T07:36:51.428Z,5.80
2022-09-03T07:39:19.968Z,4.45
2022-09-03T07:41:47.712Z,6.82
2022-09-03T07:44:19.405Z,9.25
2022-09-03T07:46:50.046Z,8.98
2022-09-03T07:49:17.639Z,6.00
2022-09-03T07:51:46.589Z,5.80
2022-09-03T07:54:14.234Z,11.35
2022-09-03T07:56:41.651Z,5.35
2022-09-03T07:59:09.581Z,5.97
2022-09-03T08:01:39.138Z,8.35
2022-09-03T08:04:09.807Z,3.80
2022-09-03T08:06:38.475Z,6.80
2022-09-03T08:09:09.053Z,4.22
2022-09-03T08:11:39.231Z,5.25
2022-09-03T08:14:08.909Z,5.35
2022-09-03T08:16:45.932Z,5.53
2022-09-03T08:19:14.098Z,4.88
2022-09-03T08:21:42.266Z,3.03
2022-09-03T08:24:11.239Z,8.27
2022-09-03T08:26:51.172Z,4.82
2022-09-03T08:29:20.451Z,3.38
2022-09-03T08:31:48.149Z,3.63
2022-09-03T08:34:17.589Z,3.95
2022-09-03T08:36:47.036Z,5.00
2022-09-03T08:39:15.098Z,4.82
2022-09-03T08:41:45.532Z,8.88
2022-09-03T08:44:31.070Z,1.85
2022-09-03T08:47:26.833Z,5.95
2022-09-03T08:50:14.644Z,7.85
2022-09-03T08:52:50.148Z,5.85
2022-09-03T08:55:31.383Z,10.68
2022-09-03T08:58:29.762Z,6.70
2022-09-03T09:01:14.940Z,5.93
2022-09-03T09:04:20.366Z,2.50
2022-09-03T09:07:01.845Z,3.53
2022-09-03T09:10:14.786Z,2.90
2022-09-03T09:15:23.844Z,5.70
2022-09-03T09:18:22.762Z,7.10
2022-09-03T09:20:52.140Z,6.18
2022-09-03T09:23:30.522Z,9.20
2022-09-03T09:26:01.343Z,4.53
2022-09-03T09:28:37.758Z,4.10
2022-09-03T09:31:10.202Z,4.32
2022-09-03T09:33:38.603Z,10.45
2022-09-03T09:36:09.885Z,3.80
2022-09-03T09:38:39.703Z,4.60
2022-09-03T09:41:27.554Z,5.10
2022-09-03T09:44:02.370Z,3.08
2022-09-03T09:46:39.508Z,5.47
2022-09-03T09:49:31.398Z,3.03
2022-09-03T09:52:08.749Z,5.13
2022-09-03T09:54:36.231Z,5.80
2022-09-03T09:57:06.778Z,5.30
2022-09-03T09:59:35.554Z,3.13
2022-09-03T10:02:10.431Z,7.05
2022-09-03T10:04:44.109Z,2.20
2022-09-03T10:07:25.502Z,3.47
2022-09-03T10:10:22.425Z,2.92
2022-09-03T10:13:30.127Z,9.68
2022-09-03T10:16:10.900Z,7.03
2022-09-03T10:19:16.070Z,7.70
2022-09-03T10:22:18.851Z,3.80
2022-09-03T10:24:59.016Z,3.08
2022-09-03T10:27:26.628Z,2.50
2022-09-03T10:29:54.171Z,4.03
2022-09-03T10:32:42.786Z,9.32
2022-09-03T10:35:35.144Z,5.28
2022-09-03T10:38:38.045Z,8.45
2022-09-03T10:41:13.359Z,5.78
2022-09-03T10:44:06.647Z,2.25
2022-09-03T10:47:03.298Z,4.63
2022-09-03T10:49:55.281Z,3.30
2022-09-03T10:52:44.446Z,2.88
2022-09-03T10:55:11.953Z,2.97
2022-09-03T10:58:01.345Z,4.05
2022-09-03T11:00:31.432Z,3.53
2022-09-03T11:03:35.947Z,4.28
2022-09-03T11:06:30.732Z,6.32
2022-09-03T11:09:06.823Z,4.53
2022-09-03T11:11:40.912Z,2.30
2022-09-03T11:14:15.345Z,2.60
2022-09-03T11:16:48.480Z,3.50
2022-09-03T11:19:23.568Z,7.25
2022-09-03T11:21:52.579Z,6.22
2022-09-03T11:24:24.326Z,2.40
2022-09-03T11:27:10.361Z,3.85
2022-09-03T11:29:46.405Z,3.20
2022-09-03T11:32:22.040Z,2.97
2022-09-03T11:34:52.104Z,4.40
2022-09-03T11:37:24.115Z,2.72
2022-09-03T11:40:20.222Z,2.90
2022-09-03T11:42:48.149Z,3.10
2022-09-03T11:45:35.229Z,3.20
2022-09-03T11:48:02.971Z,3.47
2022-09-03T11:50:32.670Z,3.28
2022-09-03T11:53:23.261Z,3.28
2022-09-03T11:56:16.521Z,3.78
2022-09-03T11:58:44.296Z,4.40
2022-09-03T12:01:16.206Z,4.50
2022-09-03T12:04:03.592Z,3.83
2022-09-03T12:06:54.421Z,3.10
2022-09-03T12:09:59.535Z,4.18
2022-09-03T12:12:59.630Z,2.92
2022-09-03T12:15:51.300Z,3.15
2022-09-03T12:18:45.740Z,5.75
2022-09-03T12:21:17.063Z,2.88
2022-09-03T12:23:49.340Z,2.63
2022-09-03T12:26:20.497Z,2.65
2022-09-03T12:29:00.905Z,3.03
2022-09-03T12:31:31.613Z,6.60
2022-09-03T12:34:15.115Z,2.60
2022-09-03T12:36:48.332Z,4.22
2022-09-03T12:40:04.471Z,3.55
2022-09-03T12:42:15.969Z,3.45
2022-09-03T12:44:43.456Z,5.50
2022-09-03T12:50:08.037Z,8.13
2022-09-03T12:52:45.184Z,3.67
2022-09-03T12:55:30.554Z,5.18
2022-09-03T12:58:27.283Z,5.78
2022-09-03T13:01:10.093Z,3.42
2022-09-03T13:04:01.830Z,3.55
2022-09-03T13:06:35.100Z,2.72
2022-09-03T13:09:06.559Z,6.45
2022-09-03T13:11:39.256Z,9.98
2022-09-03T13:14:14.553Z,7.85
2022-09-03T13:17:08.782Z,3.80
2022-09-03T13:19:46.672Z,8.93
2022-09-03T13:22:22.715Z,8.40
2022-09-03T13:25:14.212Z,5.10
2022-09-03T13:28:21.237Z,11.07
2022-09-03T13:31:12.383Z,2.80
2022-09-03T13:33:49.942Z,4.47
2022-09-03T13:36:21.630Z,7.05
2022-09-03T13:39:10.482Z,5.70
2022-09-03T13:41:54.497Z,5.43
2022-09-03T13:44:50.198Z,2.92
2022-09-03T13:47:37.904Z,4.50
2022-09-03T13:50:24.098Z,3.92
2022-09-03T13:53:10.939Z,2.90
2022-09-03T13:55:49.090Z,3.30
2022-09-03T13:58:42.995Z,5.65
2022-09-03T14:01:39.719Z,4.43
2022-09-03T14:04:20.093Z,3.10
2022-09-03T14:07:03.067Z,2.47
2022-09-03T14:09:54.441Z,5.15
2022-09-03T14:12:46.816Z,3.70
2022-09-03T14:18:16.896Z,3.60
2022-09-03T14:20:56.838Z,4.88
2022-09-03T14:23:33.366Z,4.43
2022-09-03T14:26:05.790Z,7.05
2022-09-03T14:28:49.865Z,3.15
2022-09-03T14:31:39.358Z,4.63
2022-09-03T14:34:31.286Z,5.10
2022-09-03T14:37:17.277Z,4.10
2022-09-03T14:39:55.235Z,5.38
2022-09-03T14:42:31.575Z,6.80
2022-09-03T14:45:13.142Z,6.25
2022-09-03T14:47:52.846Z,4.63
2022-09-03T14:50:40.276Z,6.35
2022-09-03T14:53:40.675Z,3.97
2022-09-03T14:56:28.482Z,6.00
2022-09-03T14:59:11.146Z,3.25
2022-09-03T15:01:39.956Z,4.68
2022-09-03T15:04:55.302Z,8.57
2022-09-03T15:07:24.015Z,2.92
2022-09-03T15:10:16.910Z,6.78
2022-09-03T15:12:50.040Z,3.80
2022-09-03T15:15:27.134Z,3.30
2022-09-03T15:18:23.259Z,4.65
2022-09-03T15:20:52.295Z,5.35
2022-09-03T15:23:47.826Z,11.80
2022-09-03T15:26:27.941Z,6.85
2022-09-03T15:29:11.530Z,5.47
2022-09-03T15:32:00.364Z,3.72
2022-09-03T15:35:08.808Z,6.72
2022-09-03T15:37:57.797Z,5.10
2022-09-03T15:40:31.410Z,8.05
2022-09-03T15:43:09.682Z,3.53
2022-09-03T15:45:48.398Z,6.30
2022-09-03T15:48:50.995Z,2.58
2022-09-03T15:51:31.134Z,3.22
2022-09-03T15:54:07.146Z,8.02
2022-09-03T15:56:58.258Z,5.28
2022-09-03T15:59:59.693Z,3.40
2022-09-03T16:02:47.586Z,4.45
2022-09-03T16:05:47.609Z,3.58
2022-09-03T16:08:19.011Z,5.03
2022-09-03T16:11:07.666Z,7.97
2022-09-03T16:13:49.410Z,4.80
2022-09-03T16:16:45.555Z,3.45
2022-09-03T16:19:18.490Z,3.38
2022-09-03T16:21:49.353Z,4.97
2022-09-03T16:24:26.078Z,3.75
2022-09-03T16:27:16.481Z,6.18
2022-09-03T16:29:57.918Z,6.65
2022-09-03T16:32:31.022Z,6.97
2022-09-03T16:35:07.665Z,3.83
2022-09-03T16:37:48.180Z,6.55
2022-09-03T16:40:26.699Z,2.90
2022-09-03T16:43:18.103Z,3.08
2022-09-03T16:46:22.165Z,4.93
2022-09-03T16:48:58.822Z,5.88
2022-09-03T16:51:49.679Z,3.15
2022-09-03T16:55:10.697Z,6.35
2022-09-03T16:57:54.511Z,5.80
2022-09-03T17:00:22.578Z,6.47
2022-09-03T17:03:06.973Z,3.10
2022-09-03T17:05:52.183Z,6.65
2022-09-03T17:08:46.164Z,3.63
2022-09-03T17:11:50.961Z,9.82
2022-09-03T17:14:33.195Z,5.25
2022-09-03T17:17:27.514Z,3.45
2022-09-03T17:20:20.064Z,3.53
2022-09-03T17:25:31.783Z,3.65
2022-09-03T17:28:25.547Z,4.47
2022-09-03T17:31:16.116Z,8.70
2022-09-03T17:33:55.390Z,6.78
2022-09-03T17:36:27.483Z,5.20
2022-09-03T17:41:53.303Z,6.97
2022-09-03T17:44:46.775Z,3.63
2022-09-03T17:47:26.075Z,4.85
2022-09-03T17:50:11.271Z,4.25
2022-09-03T17:53:00.105Z,6.22
2022-09-03T17:55:37.399Z,5.00
2022-09-03T17:58:20.919Z,8.32
2022-09-03T18:01:21.552Z,6.97
2022-09-03T18:04:05.180Z,4.60
2022-09-03T18:06:42.368Z,6.25
2022-09-03T18:09:23.499Z,7.53
2022-09-03T18:12:03.013Z,6.57
2022-09-03T18:14:39.434Z,8.95
2022-09-03T18:17:28.893Z,5.65
2022-09-03T18:20:21.471Z,3.67
2022-09-03T18:23:16.059Z,6.03
2022-09-03T18:26:07.024Z,7.05
2022-09-03T18:29:01.607Z,4.70
2022-09-03T18:31:47.680Z,7.38
2022-09-03T18:34:41.264Z,6.47
2022-09-03T18:37:27.306Z,9.48
2022-09-03T18:40:13.611Z,9.43
2022-09-03T18:43:11.707Z,6.35
2022-09-03T18:47:22.493Z,6.40
2022-09-03T18:49:27.868Z,14.13
2022-09-03T18:52:36.531Z,4.13
2022-09-03T18:55:45.050Z,6.78
2022-09-03T18:59:06.584Z,4.95
2022-09-03T19:01:58.259Z,6.85
2022-09-03T19:04:59.428Z,8.53
2022-09-03T19:08:14.693Z,8.63
2022-09-03T19:11:36.094Z,7.63
2022-09-03T19:14:31.624Z,6.07
2022-09-03T19:17:41.489Z,7.80
2022-09-03T19:20:40.133Z,9.65
2022-09-03T19:23:25.976Z,11.05
2022-09-03T19:26:14.596Z,7.97
2022-09-03T19:29:05.952Z,8.35
2022-09-03T19:32:05.385Z,6.68
2022-09-03T19:35:28.426Z,5.22
2022-09-03T19:41:32.223Z,7.53
2022-09-03T19:44:47.272Z,6.63
2022-09-03T19:48:02.967Z,12.55
2022-09-03T19:50:57.415Z,16.15
2022-09-03T19:53:44.058Z,9.77
2022-09-03T19:56:40.026Z,14.60
2022-09-03T19:59:34.418Z,20.20
2022-09-03T20:02:20.644Z,13.73
2022-09-03T20:05:18.191Z,15.93
2022-09-03T20:08:08.180Z,10.07
2022-09-03T20:10:36.714Z,7.25
2022-09-03T20:13:09.230Z,6.80
2022-09-03T20:16:13.454Z,6.43
2022-09-03T20:18:48.086Z,10.82
2022-09-03T20:21:47.277Z,11.07
2022-09-03T20:24:40.044Z,9.07
2022-09-03T20:27:34.820Z,11.88
2022-09-03T20:30:09.408Z,16.63
2022-09-03T20:32:39.937Z,13.75
2022-09-03T20:35:32.570Z,10.60
2022-09-03T20:38:09.380Z,11.23
2022-09-03T20:40:58.486Z,8.63
2022-09-03T20:44:17.922Z,10.70
2022-09-03T20:47:30.011Z,5.78
2022-09-03T20:50:13.116Z,7.43
2022-09-03T20:53:17.064Z,11.57
2022-09-03T20:55:49.199Z,10.43
2022-09-03T21:01:05.218Z,20.42
2022-09-03T21:03:35.510Z,7.55
2022-09-03T21:06:21.501Z,7.82
2022-09-03T21:08:59.169Z,6.28
2022-09-03T21:11:34.082Z,8.25
2022-09-03T21:14:20.199Z,6.07
2022-09-03T21:16:56.761Z,9.05
2022-09-03T21:20:16.086Z,7.63
2022-09-03T21:23:03.608Z,8.73
2022-09-03T21:25:40.078Z,9.95
2022-09-03T21:28:20.870Z,9.73
2022-09-03T21:30:55.082Z,8.43
2022-09-03T21:33:36.987Z,8.55
2022-09-03T21:36:15.749Z,6.82
2022-09-03T21:38:53.629Z,9.15
2022-09-03T21:41:36.521Z,9.07
2022-09-03T21:44:42.438Z,6.00
2022-09-03T21:47:15.776Z,6.43
2022-09-03T21:50:17.379Z,6.85
2022-09-03T21:53:03.369Z,6.97
2022-09-03T21:55:51.444Z,6.28
2022-09-03T21:58:21.584Z,6.45
2022-09-03T22:00:51.913Z,6.28
2022-09-03T22:03:21.175Z,6.87
2022-09-03T22:05:59.655Z,5.90
2022-09-03T22:08:36.206Z,10.02
2022-09-03T22:11:15.632Z,8.90
2022-09-03T22:14:13.710Z,6.40
2022-09-03T22:16:53.129Z,6.45
2022-09-03T22:19:20.649Z,8.02
2022-09-03T22:21:59.889Z,5.78
2022-09-03T22:24:52.731Z,6.75
2022-09-03T22:30:13.908Z,6.68
2022-09-03T22:32:53.158Z,7.15
2022-09-03T22:35:51.925Z,6.07
2022-09-03T22:38:43.697Z,7.88
2022-09-03T22:41:30.358Z,6.70
2022-09-03T22:44:18.522Z,9.55
2022-09-03T22:47:12.423Z,6.07
2022-09-03T22:50:17.035Z,8.88
2022-09-03T22:52:46.272Z,6.07
2022-09-03T22:55:25.580Z,7.88
2022-09-03T22:57:59.208Z,8.18
2022-09-03T23:00:29.319Z,6.45
2022-09-03T23:03:07.407Z,7.75
2022-09-03T23:05:59.041Z,6.03
2022-09-03T23:08:33.427Z,9.60
2022-09-03T23:11:25.482Z,6.18
2022-09-03T23:14:12.340Z,7.72
2022-09-03T23:16:57.635Z,7.82
2022-09-03T23:19:43.054Z,8.20
2022-09-03T23:22:22.449Z,8.05
2022-09-03T23:25:01.901Z,7.78
2022-09-03T23:27:41.820Z,6.63
2022-09-03T23:30:10.306Z,9.95
2022-09-03T23:32:38.175Z,8.38
2022-09-03T23:35:17.806Z,5.82
2022-09-03T23:38:04.378Z,10.50
2022-09-03T23:40:34.882Z,8.18
2022-09-03T23:43:11.557Z,6.63
2022-09-03T23:45:46.492Z,8.60
2022-09-03T23:48:51.504Z,9.50
2022-09-03T23:51:56.736Z,14.40
2022-09-03T23:54:49.366Z,9.40
